createdAt,value
2022-10-02T00:00:08.562Z,349
2022-10-02T00:01:08.180Z,339
2022-10-02T00:02:08.127Z,338
2022-10-02T00:03:07.198Z,345
2022-10-02T00:04:08.077Z,340
2022-10-02T00:05:07.150Z,345
2022-10-02T00:06:07.829Z,351
2022-10-02T00:07:07.725Z,348
2022-10-02T00:08:07.361Z,352
2022-10-02T00:09:07.343Z,351
2022-10-02T00:10:07.429Z,342
2022-10-02T00:11:07.147Z,340
2022-10-02T00:12:07.656Z,336
2022-10-02T00:13:07.259Z,346
2022-10-02T00:14:07.105Z,341
2022-10-02T00:15:07.897Z,343
2022-10-02T00:16:07.724Z,352
2022-10-02T00:17:07.572Z,355
2022-10-02T00:18:07.522Z,326
2022-10-02T00:19:07.588Z,330
2022-10-02T00:20:07.438Z,335
2022-10-02T00:21:07.354Z,344
2022-10-02T00:22:07.199Z,342
2022-10-02T00:23:07.735Z,336
2022-10-02T00:24:07.449Z,328
2022-10-02T00:25:07.480Z,335
2022-10-02T00:26:07.252Z,348
2022-10-02T00:27:07.219Z,351
2022-10-02T00:28:08.057Z,347
2022-10-02T00:29:07.682Z,346
2022-10-02T00:30:07.771Z,347
2022-10-02T00:31:07.462Z,342
2022-10-02T00:32:07.318Z,343
2022-10-02T00:33:07.045Z,335
2022-10-02T00:34:09.078Z,337
2022-10-02T00:35:07.946Z,353
2022-10-02T00:36:08.038Z,348
2022-10-02T00:37:07.585Z,342
2022-10-02T00:38:07.476Z,336
2022-10-02T00:39:07.244Z,344
2022-10-02T00:41:07.647Z,339
2022-10-02T00:42:07.326Z,345
2022-10-02T00:43:06.847Z,341
2022-10-02T00:44:07.320Z,347
2022-10-02T00:45:07.112Z,356
2022-10-02T00:46:07.714Z,347
2022-10-02T00:47:07.526Z,340
2022-10-02T00:48:07.441Z,347
2022-10-02T00:49:06.991Z,357
2022-10-02T00:50:07.510Z,356
2022-10-02T00:51:07.614Z,347
2022-10-02T00:52:07.175Z,350
2022-10-02T00:53:07.677Z,335
2022-10-02T00:54:07.526Z,377
2022-10-02T00:55:07.492Z,343
2022-10-02T00:56:07.084Z,335
2022-10-02T00:57:07.776Z,336
2022-10-02T00:58:07.644Z,341
2022-10-02T00:59:07.492Z,355
2022-10-02T01:00:08.037Z,354
2022-10-02T01:01:07.088Z,353
2022-10-02T01:02:07.990Z,348
2022-10-02T01:03:07.581Z,345
2022-10-02T01:04:07.147Z,338
2022-10-02T01:05:07.855Z,349
2022-10-02T01:06:07.543Z,348
2022-10-02T01:07:07.229Z,345
2022-10-02T01:08:07.136Z,346
2022-10-02T01:09:07.750Z,342
2022-10-02T01:10:07.311Z,336
2022-10-02T01:11:07.136Z,333
2022-10-02T01:12:07.501Z,347
2022-10-02T01:13:06.461Z,348
2022-10-02T01:14:07.630Z,349
2022-10-02T01:15:07.380Z,348
2022-10-02T01:16:06.872Z,344
2022-10-02T01:17:07.453Z,345
2022-10-02T01:18:07.054Z,351
2022-10-02T01:19:07.687Z,358
2022-10-02T01:20:07.413Z,356
2022-10-02T01:21:07.092Z,348
2022-10-02T01:22:07.464Z,341
2022-10-02T01:23:07.413Z,344
2022-10-02T01:24:07.318Z,345
2022-10-02T01:25:07.341Z,348
2022-10-02T01:26:07.066Z,339
2022-10-02T01:27:07.498Z,347
2022-10-02T01:28:07.148Z,348
2022-10-02T01:29:07.596Z,350
2022-10-02T01:31:07.322Z,341
2022-10-02T01:32:07.114Z,356
2022-10-02T01:33:07.788Z,322
2022-10-02T01:34:07.186Z,329
2022-10-02T01:35:07.636Z,335
2022-10-02T01:36:07.146Z,347
2022-10-02T01:37:07.699Z,348
2022-10-02T01:38:07.201Z,352
2022-10-02T01:39:07.023Z,351
2022-10-02T01:40:07.687Z,344
2022-10-02T01:41:07.269Z,350
2022-10-02T01:42:06.933Z,347
2022-10-02T01:43:07.439Z,343
2022-10-02T01:44:07.004Z,340
2022-10-02T01:45:07.827Z,342
2022-10-02T01:46:07.679Z,339
2022-10-02T01:47:07.717Z,348
2022-10-02T01:49:07.316Z,347
2022-10-02T01:50:06.979Z,348
2022-10-02T01:51:07.690Z,318
2022-10-02T01:52:07.109Z,333
2022-10-02T01:53:07.852Z,336
2022-10-02T01:54:07.357Z,333
2022-10-02T01:55:06.998Z,336
2022-10-02T01:56:07.367Z,344
2022-10-02T01:57:06.971Z,340
2022-10-02T01:58:07.392Z,348
2022-10-02T01:59:07.032Z,346
2022-10-02T02:00:08.639Z,349
2022-10-02T02:01:07.291Z,348
2022-10-02T02:02:07.157Z,350
2022-10-02T02:04:07.652Z,349
2022-10-02T02:05:07.479Z,357
2022-10-02T02:06:07.345Z,351
2022-10-02T02:07:07.234Z,355
2022-10-02T02:08:07.771Z,330
2022-10-02T02:09:07.285Z,363
2022-10-02T02:10:08.012Z,339
2022-10-02T02:11:07.618Z,342
2022-10-02T02:12:07.001Z,346
2022-10-02T02:13:07.825Z,340
2022-10-02T02:14:07.636Z,341
2022-10-02T02:15:07.431Z,340
2022-10-02T02:16:06.886Z,349
2022-10-02T02:17:07.383Z,341
2022-10-02T02:18:07.106Z,346
2022-10-02T02:20:07.437Z,335
2022-10-02T02:21:07.316Z,349
2022-10-02T02:22:07.034Z,347
2022-10-02T02:23:07.238Z,349
2022-10-02T02:24:07.914Z,351
2022-10-02T02:26:06.926Z,354
2022-10-02T02:27:07.721Z,353
2022-10-02T02:28:07.789Z,332
2022-10-02T02:29:07.382Z,320
2022-10-02T02:30:07.338Z,332
2022-10-02T02:31:06.819Z,328
2022-10-02T02:32:07.247Z,326
2022-10-02T02:33:07.007Z,340
2022-10-02T02:34:08.260Z,354
2022-10-02T02:35:07.194Z,347
2022-10-02T02:36:07.086Z,334
2022-10-02T02:37:07.906Z,346
2022-10-02T02:38:07.530Z,344
2022-10-02T02:39:07.096Z,349
2022-10-02T02:40:07.889Z,358
2022-10-02T02:41:07.581Z,347
2022-10-02T02:42:07.468Z,350
2022-10-02T02:43:07.429Z,352
2022-10-02T02:44:07.197Z,347
2022-10-02T02:45:08.168Z,339
2022-10-02T02:46:07.172Z,336
2022-10-02T02:47:07.124Z,343
2022-10-02T02:48:07.767Z,339
2022-10-02T02:49:07.205Z,332
2022-10-02T02:50:06.912Z,334
2022-10-02T02:51:07.704Z,342
2022-10-02T02:52:07.349Z,341
2022-10-02T02:53:07.068Z,340
2022-10-02T02:54:07.563Z,338
2022-10-02T02:55:07.204Z,335
2022-10-02T02:56:07.748Z,333
2022-10-02T02:57:07.294Z,340
2022-10-02T02:58:07.570Z,350
2022-10-02T02:59:07.211Z,347
2022-10-02T03:00:08.869Z,344
2022-10-02T03:01:07.074Z,340
2022-10-02T03:02:07.961Z,338
2022-10-02T03:03:07.970Z,345
2022-10-02T03:04:07.650Z,348
2022-10-02T03:05:07.071Z,337
2022-10-02T03:06:07.407Z,336
2022-10-02T03:07:07.158Z,337
2022-10-02T03:08:07.670Z,339
2022-10-02T03:09:07.487Z,342
2022-10-02T03:10:07.089Z,340
2022-10-02T03:11:07.183Z,348
2022-10-02T03:12:07.652Z,356
2022-10-02T03:13:07.249Z,346
2022-10-02T03:15:07.805Z,354
2022-10-02T03:16:07.711Z,360
2022-10-02T03:17:07.915Z,352
2022-10-02T03:18:07.699Z,346
2022-10-02T03:19:07.401Z,343
2022-10-02T03:20:07.508Z,341
2022-10-02T03:21:07.174Z,337
2022-10-02T03:22:07.645Z,343
2022-10-02T03:23:07.368Z,359
2022-10-02T03:24:07.178Z,332
2022-10-02T03:25:07.217Z,336
2022-10-02T03:26:06.843Z,338
2022-10-02T03:27:07.364Z,342
2022-10-02T03:28:07.149Z,337
2022-10-02T03:29:07.850Z,339
2022-10-02T03:30:08.006Z,332
2022-10-02T03:31:07.845Z,341
2022-10-02T03:32:07.799Z,347
2022-10-02T03:33:07.465Z,339
2022-10-02T03:34:07.019Z,347
2022-10-02T03:35:07.457Z,344
2022-10-02T03:36:07.014Z,348
2022-10-02T03:38:07.247Z,351
2022-10-02T03:39:24.240Z,349
2022-10-02T03:40:07.498Z,346
2022-10-02T03:41:07.235Z,337
2022-10-02T03:42:07.806Z,353
2022-10-02T03:43:07.309Z,339
2022-10-02T03:44:07.008Z,336
2022-10-02T03:45:07.826Z,338
2022-10-02T03:47:07.455Z,336
2022-10-02T03:48:06.833Z,350
2022-10-02T03:49:07.281Z,352
2022-10-02T03:50:07.731Z,354
2022-10-02T03:51:07.271Z,350
2022-10-02T03:52:07.873Z,347
2022-10-02T03:53:07.312Z,341
2022-10-02T03:54:07.231Z,337
2022-10-02T03:55:07.833Z,338
2022-10-02T03:56:07.214Z,332
2022-10-02T03:57:07.643Z,338
2022-10-02T03:58:07.133Z,350
2022-10-02T03:59:07.606Z,351
2022-10-02T04:00:08.336Z,353
2022-10-02T04:01:07.252Z,348
2022-10-02T04:02:08.030Z,345
2022-10-02T04:03:07.962Z,350
2022-10-02T04:04:07.393Z,338
2022-10-02T04:05:07.253Z,339
2022-10-02T04:06:07.107Z,344
2022-10-02T04:07:07.647Z,350
2022-10-02T04:08:07.356Z,352
2022-10-02T04:09:08.162Z,354
2022-10-02T04:11:07.400Z,348
2022-10-02T04:12:07.157Z,349
2022-10-02T04:13:07.676Z,341
2022-10-02T04:14:07.148Z,337
2022-10-02T04:15:07.853Z,340
2022-10-02T04:16:07.285Z,349
2022-10-02T04:17:07.114Z,344
2022-10-02T04:18:07.494Z,346
2022-10-02T04:19:07.257Z,357
2022-10-02T04:20:07.984Z,335
2022-10-02T04:21:07.827Z,342
2022-10-02T04:22:07.575Z,348
2022-10-02T04:23:07.603Z,345
2022-10-02T04:24:07.289Z,337
2022-10-02T04:25:07.258Z,351
2022-10-02T04:26:07.118Z,352
2022-10-02T04:27:07.696Z,342
2022-10-02T04:28:07.482Z,341
2022-10-02T04:29:07.406Z,340
2022-10-02T04:30:07.362Z,339
2022-10-02T04:31:07.259Z,348
2022-10-02T04:32:07.266Z,350
2022-10-02T04:33:07.788Z,338
2022-10-02T04:34:07.535Z,343
2022-10-02T04:35:07.686Z,349
2022-10-02T04:37:07.088Z,363
2022-10-02T04:38:07.643Z,347
2022-10-02T04:39:07.320Z,339
2022-10-02T04:40:07.150Z,344
2022-10-02T04:42:07.453Z,345
2022-10-02T04:43:07.293Z,351
2022-10-02T04:44:07.077Z,342
2022-10-02T04:45:08.346Z,336
2022-10-02T04:46:07.265Z,340
2022-10-02T04:47:07.180Z,346
2022-10-02T04:48:07.825Z,348
2022-10-02T04:49:07.533Z,339
2022-10-02T04:50:07.204Z,346
2022-10-02T04:51:07.669Z,353
2022-10-02T04:52:07.424Z,350
2022-10-02T04:53:06.967Z,355
2022-10-02T04:54:07.481Z,348
2022-10-02T04:55:07.322Z,350
2022-10-02T04:56:07.294Z,353
2022-10-02T04:57:07.272Z,326
2022-10-02T04:58:07.258Z,325
2022-10-02T04:59:07.874Z,331
2022-10-02T05:00:08.451Z,336
2022-10-02T05:01:07.720Z,341
2022-10-02T05:02:07.695Z,346
2022-10-02T05:03:07.827Z,347
2022-10-02T05:04:07.488Z,346
2022-10-02T05:05:07.608Z,341
2022-10-02T05:06:07.268Z,337
2022-10-02T05:07:07.877Z,336
2022-10-02T05:08:07.666Z,344
2022-10-02T05:09:07.597Z,343
2022-10-02T05:10:07.503Z,355
2022-10-02T05:11:07.460Z,351
2022-10-02T05:12:07.332Z,349
2022-10-02T05:13:07.358Z,352
2022-10-02T05:14:07.090Z,338
2022-10-02T05:15:07.948Z,330
2022-10-02T05:16:07.520Z,338
2022-10-02T05:17:07.394Z,350
2022-10-02T05:18:07.075Z,356
2022-10-02T05:19:07.386Z,352
2022-10-02T05:20:07.406Z,359
2022-10-02T05:21:07.375Z,360
2022-10-02T05:22:07.343Z,355
2022-10-02T05:23:07.490Z,346
2022-10-02T05:24:07.332Z,355
2022-10-02T05:25:07.322Z,354
2022-10-02T05:26:09.681Z,355
2022-10-02T05:27:06.934Z,350
2022-10-02T05:28:07.760Z,354
2022-10-02T05:29:07.390Z,359
2022-10-02T05:30:07.688Z,353
2022-10-02T05:32:07.813Z,347
2022-10-02T05:33:07.943Z,364
2022-10-02T05:34:07.869Z,349
2022-10-02T05:35:07.504Z,356
2022-10-02T05:36:07.381Z,352
2022-10-02T05:37:07.311Z,353
2022-10-02T05:38:07.347Z,346
2022-10-02T05:40:07.515Z,341
2022-10-02T05:41:07.370Z,347
2022-10-02T05:42:07.038Z,345
2022-10-02T05:43:07.781Z,342
2022-10-02T05:44:07.634Z,354
2022-10-02T05:45:07.862Z,348
2022-10-02T05:46:07.612Z,349
2022-10-02T05:47:07.230Z,359
2022-10-02T05:48:07.649Z,360
2022-10-02T05:50:07.505Z,343
2022-10-02T05:51:07.552Z,388
2022-10-02T05:52:07.313Z,352
2022-10-02T05:53:07.466Z,354
2022-10-02T05:54:07.287Z,351
2022-10-02T05:55:07.172Z,346
2022-10-02T05:56:07.593Z,362
2022-10-02T05:57:07.508Z,361
2022-10-02T05:58:07.347Z,355
2022-10-02T05:59:07.430Z,363
2022-10-02T06:00:08.407Z,371
2022-10-02T06:01:07.602Z,362
2022-10-02T06:02:07.734Z,352
2022-10-02T06:03:08.343Z,355
2022-10-02T06:04:07.651Z,356
2022-10-02T06:05:07.944Z,354
2022-10-02T06:06:08.218Z,345
2022-10-02T06:07:07.410Z,341
2022-10-02T06:08:07.551Z,348
2022-10-02T06:09:07.695Z,351
2022-10-02T06:10:07.704Z,324
2022-10-02T06:11:07.628Z,341
2022-10-02T06:12:07.482Z,352
2022-10-02T06:13:07.422Z,346
2022-10-02T06:14:07.156Z,335
2022-10-02T06:15:08.117Z,344
2022-10-02T06:16:07.839Z,353
2022-10-02T06:17:07.876Z,347
2022-10-02T06:18:07.479Z,349
2022-10-02T06:19:06.953Z,351
2022-10-02T06:20:08.012Z,350
2022-10-02T06:22:07.636Z,358
2022-10-02T06:23:07.572Z,351
2022-10-02T06:24:07.526Z,347
2022-10-02T06:25:07.533Z,344
2022-10-02T06:26:07.099Z,341
2022-10-02T06:27:08.093Z,333
2022-10-02T06:28:08.133Z,361
2022-10-02T06:29:07.087Z,336
2022-10-02T06:30:16.267Z,335
2022-10-02T06:31:07.887Z,340
2022-10-02T06:32:07.558Z,337
2022-10-02T06:33:07.590Z,341
2022-10-02T06:34:07.537Z,345
2022-10-02T06:35:07.738Z,351
2022-10-02T06:37:07.592Z,355
2022-10-02T06:38:21.216Z,337
2022-10-02T06:39:07.915Z,345
2022-10-02T06:40:08.133Z,342
2022-10-02T06:41:07.406Z,343
2022-10-02T06:42:07.479Z,331
2022-10-02T06:43:07.394Z,330
2022-10-02T06:44:07.480Z,338
2022-10-02T06:45:07.493Z,347
2022-10-02T06:46:07.340Z,339
2022-10-02T06:47:07.290Z,348
2022-10-02T06:48:07.258Z,347
2022-10-02T06:49:06.927Z,329
2022-10-02T06:50:07.694Z,333
2022-10-02T06:51:07.443Z,338
2022-10-02T06:52:07.416Z,345
2022-10-02T06:53:07.276Z,349
2022-10-02T06:54:07.267Z,345
2022-10-02T06:55:08.212Z,341
2022-10-02T06:56:07.230Z,350
2022-10-02T06:57:07.222Z,356
2022-10-02T06:58:08.180Z,357
2022-10-02T06:59:08.030Z,355
2022-10-02T07:00:09.328Z,343
2022-10-02T07:01:07.590Z,354
2022-10-02T07:02:07.846Z,348
2022-10-02T07:03:08.021Z,345
2022-10-02T07:04:07.821Z,344
2022-10-02T07:05:07.874Z,337
2022-10-02T07:06:07.794Z,356
2022-10-02T07:07:07.895Z,360
2022-10-02T07:08:07.766Z,351
2022-10-02T07:09:07.534Z,341
2022-10-02T07:10:07.771Z,339
2022-10-02T07:11:07.718Z,341
2022-10-02T07:12:07.667Z,342
2022-10-02T07:13:07.433Z,339
2022-10-02T07:14:07.164Z,338
2022-10-02T07:15:08.267Z,328
2022-10-02T07:16:07.216Z,325
2022-10-02T07:17:07.765Z,333
2022-10-02T07:18:07.987Z,341
2022-10-02T07:19:07.842Z,345
2022-10-02T07:20:07.929Z,350
2022-10-02T07:21:07.706Z,349
2022-10-02T07:22:25.898Z,342
2022-10-02T07:23:07.895Z,345
2022-10-02T07:24:07.852Z,365
2022-10-02T07:25:07.745Z,359
2022-10-02T07:26:07.529Z,355
2022-10-02T07:27:07.382Z,341
2022-10-02T07:28:07.249Z,336
2022-10-02T07:29:07.257Z,334
2022-10-02T07:30:08.353Z,340
2022-10-02T07:31:07.475Z,344
2022-10-02T07:33:07.347Z,337
2022-10-02T07:34:07.079Z,335
2022-10-02T07:35:07.644Z,341
2022-10-02T07:36:07.446Z,340
2022-10-02T07:37:07.387Z,343
2022-10-02T07:38:07.091Z,334
2022-10-02T07:39:07.958Z,330
2022-10-02T07:40:07.689Z,341
2022-10-02T07:41:07.411Z,340
2022-10-02T07:42:07.305Z,353
2022-10-02T07:43:07.389Z,331
2022-10-02T07:44:07.337Z,345
2022-10-02T07:45:07.810Z,349
2022-10-02T07:46:09.534Z,345
2022-10-02T07:47:07.891Z,337
2022-10-02T07:48:07.749Z,338
2022-10-02T07:49:07.366Z,336
2022-10-02T07:50:07.323Z,329
2022-10-02T07:51:06.992Z,323
2022-10-02T07:52:07.951Z,333
2022-10-02T07:54:07.510Z,331
2022-10-02T07:55:07.477Z,335
2022-10-02T07:56:07.375Z,345
2022-10-02T07:57:09.936Z,339
2022-10-02T07:58:07.853Z,340
2022-10-02T07:59:07.530Z,341
2022-10-02T08:00:08.212Z,348
2022-10-02T08:01:07.602Z,351
2022-10-02T08:02:07.568Z,347
2022-10-02T08:03:07.661Z,349
2022-10-02T08:04:07.575Z,340
2022-10-02T08:05:07.511Z,341
2022-10-02T08:06:07.519Z,343
2022-10-02T08:07:07.212Z,332
2022-10-02T08:08:07.253Z,327
2022-10-02T08:09:07.839Z,338
2022-10-02T08:10:07.866Z,347
2022-10-02T08:12:07.211Z,345
2022-10-02T08:13:08.129Z,338
2022-10-02T08:14:08.176Z,336
2022-10-02T08:15:08.281Z,330
2022-10-02T08:16:07.972Z,345
2022-10-02T08:17:07.774Z,340
2022-10-02T08:18:30.131Z,348
2022-10-02T08:19:08.269Z,319
2022-10-02T08:20:07.475Z,332
2022-10-02T08:21:07.576Z,336
2022-10-02T08:22:07.423Z,334
2022-10-02T08:23:07.221Z,335
2022-10-02T08:24:07.888Z,338
2022-10-02T08:25:07.687Z,337
2022-10-02T08:26:07.318Z,341
2022-10-02T08:27:07.251Z,343
2022-10-02T08:28:07.216Z,346
2022-10-02T08:29:07.879Z,338
2022-10-02T08:30:07.952Z,330
2022-10-02T08:31:07.898Z,340
2022-10-02T08:32:07.726Z,344
2022-10-02T08:33:07.707Z,343
2022-10-02T08:34:07.709Z,337
2022-10-02T08:35:07.978Z,341
2022-10-02T08:36:08.032Z,338
2022-10-02T08:37:07.649Z,358
2022-10-02T08:38:07.229Z,316
2022-10-02T08:39:08.035Z,324
2022-10-02T08:40:07.860Z,343
2022-10-02T08:41:07.662Z,339
2022-10-02T08:42:07.735Z,330
2022-10-02T08:43:07.433Z,329
2022-10-02T08:44:07.252Z,342
2022-10-02T08:45:08.214Z,350
2022-10-02T08:46:07.734Z,334
2022-10-02T08:47:07.920Z,341
2022-10-02T08:48:07.757Z,344
2022-10-02T08:49:15.840Z,343
2022-10-02T08:50:07.434Z,333
2022-10-02T08:51:15.353Z,336
2022-10-02T08:52:07.170Z,341
2022-10-02T08:53:07.841Z,332
2022-10-02T08:54:07.814Z,335
2022-10-02T08:55:07.749Z,336
2022-10-02T08:56:07.584Z,333
2022-10-02T08:57:07.442Z,326
2022-10-02T08:58:07.181Z,334
2022-10-02T08:59:07.172Z,329
2022-10-02T09:00:08.938Z,331
2022-10-02T09:01:07.937Z,330
2022-10-02T09:02:07.959Z,337
2022-10-02T09:03:07.930Z,338
2022-10-02T09:04:07.626Z,335
2022-10-02T09:05:07.521Z,333
2022-10-02T09:07:07.116Z,335
2022-10-02T09:08:07.936Z,330
2022-10-02T09:09:07.877Z,328
2022-10-02T09:10:08.500Z,337
2022-10-02T09:11:07.530Z,339
2022-10-02T09:13:07.232Z,328
2022-10-02T09:14:07.152Z,335
2022-10-02T09:15:08.206Z,342
2022-10-02T09:16:07.468Z,331
2022-10-02T09:17:07.806Z,332
2022-10-02T09:18:07.605Z,334
2022-10-02T09:19:07.440Z,336
2022-10-02T09:20:07.561Z,340
2022-10-02T09:21:11.396Z,334
2022-10-02T09:22:07.926Z,327
2022-10-02T09:23:07.731Z,332
2022-10-02T09:24:08.098Z,339
2022-10-02T09:25:07.442Z,337
2022-10-02T09:26:07.212Z,338
2022-10-02T09:27:07.950Z,332
2022-10-02T09:28:07.815Z,321
2022-10-02T09:29:07.924Z,323
2022-10-02T09:30:08.297Z,327
2022-10-02T09:31:07.354Z,339
2022-10-02T09:32:07.255Z,314
2022-10-02T09:33:07.329Z,319
2022-10-02T09:34:07.957Z,332
2022-10-02T09:35:07.935Z,328
2022-10-02T09:36:07.572Z,332
2022-10-02T09:37:07.447Z,338
2022-10-02T09:38:07.648Z,344
2022-10-02T09:39:07.517Z,336
2022-10-02T09:40:07.584Z,332
2022-10-02T09:41:07.233Z,336
2022-10-02T09:42:08.114Z,339
2022-10-02T09:44:07.330Z,351
2022-10-02T09:45:08.171Z,347
2022-10-02T09:46:07.889Z,337
2022-10-02T09:47:07.815Z,336
2022-10-02T09:48:07.707Z,325
2022-10-02T09:49:07.369Z,370
2022-10-02T09:50:07.220Z,337
2022-10-02T09:51:07.086Z,327
2022-10-02T09:52:07.787Z,323
2022-10-02T09:53:07.303Z,318
2022-10-02T09:54:07.172Z,326
2022-10-02T09:55:07.977Z,339
2022-10-02T09:56:07.633Z,336
2022-10-02T09:57:07.469Z,327
2022-10-02T09:58:07.374Z,320
2022-10-02T09:59:07.654Z,327
2022-10-02T10:00:08.297Z,336
2022-10-02T10:01:07.721Z,332
2022-10-02T10:02:07.592Z,326
2022-10-02T10:03:07.705Z,333
2022-10-02T10:04:07.581Z,343
2022-10-02T10:05:07.552Z,333
2022-10-02T10:06:07.676Z,323
2022-10-02T10:08:07.427Z,335
2022-10-02T10:09:07.262Z,333
2022-10-02T10:10:07.480Z,328
2022-10-02T10:11:07.239Z,321
2022-10-02T10:12:07.143Z,327
2022-10-02T10:13:08.138Z,339
2022-10-02T10:14:08.091Z,344
2022-10-02T10:15:09.314Z,336
2022-10-02T10:16:07.084Z,334
2022-10-02T10:17:08.127Z,353
2022-10-02T10:18:07.900Z,356
2022-10-02T10:19:07.823Z,343
2022-10-02T10:20:07.963Z,329
2022-10-02T10:21:07.639Z,316
2022-10-02T10:22:07.443Z,325
2022-10-02T10:23:07.487Z,328
2022-10-02T10:24:07.308Z,327
2022-10-02T10:25:07.243Z,332
2022-10-02T10:26:07.427Z,323
2022-10-02T10:27:08.274Z,325
2022-10-02T10:28:07.215Z,330
2022-10-02T10:29:07.290Z,331
2022-10-02T10:30:07.544Z,344
2022-10-02T10:31:07.440Z,346
2022-10-02T10:32:07.718Z,338
2022-10-02T10:33:07.694Z,326
2022-10-02T10:34:07.742Z,328
2022-10-02T10:35:07.611Z,325
2022-10-02T10:36:07.638Z,326
2022-10-02T10:37:07.580Z,336
2022-10-02T10:38:07.753Z,337
2022-10-02T10:39:07.703Z,331
2022-10-02T10:40:07.704Z,323
2022-10-02T10:41:07.585Z,327
2022-10-02T10:42:07.529Z,314
2022-10-02T10:43:08.671Z,337
2022-10-02T10:44:07.536Z,335
2022-10-02T10:45:07.756Z,328
2022-10-02T10:46:07.574Z,335
2022-10-02T10:47:07.595Z,336
2022-10-02T10:48:07.535Z,326
2022-10-02T10:49:07.497Z,327
2022-10-02T10:51:07.245Z,328
2022-10-02T10:52:07.232Z,335
2022-10-02T10:53:07.128Z,330
2022-10-02T10:54:07.741Z,329
2022-10-02T10:55:07.723Z,334
2022-10-02T10:56:07.394Z,337
2022-10-02T10:57:07.227Z,339
2022-10-02T11:00:09.000Z,332
2022-10-02T11:01:08.074Z,325
2022-10-02T11:02:08.346Z,324
2022-10-02T11:03:07.607Z,331
2022-10-02T11:04:07.592Z,338
2022-10-02T11:05:07.706Z,332
2022-10-02T11:06:07.470Z,334
2022-10-02T11:07:07.465Z,328
2022-10-02T11:08:07.251Z,333
2022-10-02T11:09:07.267Z,339
2022-10-02T11:10:07.626Z,340
2022-10-02T11:11:07.714Z,325
2022-10-02T11:12:09.660Z,328
2022-10-02T11:13:07.750Z,341
2022-10-02T11:14:07.621Z,340
2022-10-02T11:15:07.781Z,333
2022-10-02T11:16:07.791Z,338
2022-10-02T11:17:08.188Z,325
2022-10-02T11:18:08.074Z,345
2022-10-02T11:19:07.163Z,314
2022-10-02T11:20:08.142Z,332
2022-10-02T11:21:07.880Z,342
2022-10-02T11:22:07.505Z,334
2022-10-02T11:23:07.313Z,333
2022-10-02T11:24:07.330Z,328
2022-10-02T11:25:09.385Z,320
2022-10-02T11:26:07.147Z,314
2022-10-02T11:27:07.271Z,317
2022-10-02T11:28:07.098Z,319
2022-10-02T11:29:07.752Z,327
2022-10-02T11:30:08.364Z,333
2022-10-02T11:31:07.275Z,321
2022-10-02T11:32:07.712Z,322
2022-10-02T11:33:07.863Z,330
2022-10-02T11:34:07.843Z,334
2022-10-02T11:35:07.729Z,314
2022-10-02T11:36:07.546Z,360
2022-10-02T11:37:07.276Z,328
2022-10-02T11:38:07.292Z,323
2022-10-02T11:39:07.429Z,331
2022-10-02T11:40:07.229Z,333
2022-10-02T11:41:07.872Z,341
2022-10-02T11:42:07.459Z,346
2022-10-02T11:43:07.191Z,334
2022-10-02T11:45:08.429Z,335
2022-10-02T11:46:07.537Z,332
2022-10-02T11:47:07.508Z,331
2022-10-02T11:48:07.490Z,327
2022-10-02T11:50:29.901Z,326
2022-10-02T11:52:07.632Z,327
2022-10-02T11:53:07.207Z,332
2022-10-02T11:54:08.102Z,340
2022-10-02T11:55:07.779Z,299
2022-10-02T11:56:07.405Z,307
2022-10-02T11:57:07.223Z,322
2022-10-02T11:58:07.859Z,331
2022-10-02T11:59:07.709Z,332
2022-10-02T12:00:08.574Z,331
2022-10-02T12:01:07.368Z,328
2022-10-02T12:02:07.507Z,335
2022-10-02T12:03:07.811Z,328
2022-10-02T12:04:07.865Z,314
2022-10-02T12:05:07.900Z,313
2022-10-02T12:07:07.557Z,318
2022-10-02T12:08:07.487Z,326
2022-10-02T12:09:07.390Z,330
2022-10-02T12:10:07.428Z,340
2022-10-02T12:11:07.475Z,326
2022-10-02T12:12:07.901Z,353
2022-10-02T12:13:07.920Z,338
2022-10-02T12:14:07.816Z,326
2022-10-02T12:15:07.836Z,315
2022-10-02T12:16:07.567Z,314
2022-10-02T12:17:07.942Z,313
2022-10-02T12:18:07.749Z,315
2022-10-02T12:19:07.635Z,322
2022-10-02T12:20:08.072Z,319
2022-10-02T12:21:08.016Z,316
2022-10-02T12:23:07.851Z,330
2022-10-02T12:24:07.802Z,335
2022-10-02T12:25:07.651Z,333
2022-10-02T12:26:07.478Z,329
2022-10-02T12:27:07.613Z,322
2022-10-02T12:28:07.434Z,328
2022-10-02T12:29:07.460Z,330
2022-10-02T12:30:07.914Z,343
2022-10-02T12:31:07.857Z,334
2022-10-02T12:32:08.101Z,327
2022-10-02T12:33:07.451Z,338
2022-10-02T12:34:07.625Z,339
2022-10-02T12:35:07.618Z,327
2022-10-02T12:36:07.410Z,341
2022-10-02T12:37:07.389Z,336
2022-10-02T12:38:07.208Z,346
2022-10-02T12:39:07.950Z,348
2022-10-02T12:40:08.189Z,351
2022-10-02T12:41:07.081Z,348
2022-10-02T12:42:07.840Z,340
2022-10-02T12:44:07.380Z,329
2022-10-02T12:46:07.972Z,342
2022-10-02T12:47:07.794Z,311
2022-10-02T12:48:07.930Z,309
2022-10-02T12:49:07.678Z,328
2022-10-02T12:50:07.550Z,332
2022-10-02T12:51:07.427Z,331
2022-10-02T12:52:07.237Z,332
2022-10-02T12:53:07.199Z,333
2022-10-02T12:54:07.399Z,331
2022-10-02T12:55:07.606Z,315
2022-10-02T12:56:07.624Z,331
2022-10-02T12:57:07.496Z,343
2022-10-02T12:58:07.520Z,325
2022-10-02T12:59:07.453Z,320
2022-10-02T13:00:08.378Z,323
2022-10-02T13:01:08.031Z,328
2022-10-02T13:02:08.177Z,327
2022-10-02T13:03:07.401Z,322
2022-10-02T13:04:07.427Z,323
2022-10-02T13:05:07.515Z,326
2022-10-02T13:06:07.332Z,333
2022-10-02T13:07:07.329Z,324
2022-10-02T13:08:07.239Z,317
2022-10-02T13:09:07.984Z,326
2022-10-02T13:12:07.788Z,327
2022-10-02T13:13:07.508Z,330
2022-10-02T13:14:07.480Z,334
2022-10-02T13:16:07.840Z,340
2022-10-02T13:17:10.216Z,331
2022-10-02T13:18:07.585Z,324
2022-10-02T13:20:07.563Z,321
2022-10-02T13:21:07.367Z,315
2022-10-02T13:22:07.207Z,320
2022-10-02T13:23:07.208Z,322
2022-10-02T13:24:07.341Z,328
2022-10-02T13:25:07.724Z,336
2022-10-02T13:26:07.844Z,342
2022-10-02T13:27:12.837Z,338
2022-10-02T13:28:07.614Z,323
2022-10-02T13:29:07.732Z,327
2022-10-02T13:30:07.895Z,332
2022-10-02T13:31:08.046Z,329
2022-10-02T13:32:07.344Z,330
2022-10-02T13:33:07.449Z,339
2022-10-02T13:34:07.540Z,329
2022-10-02T13:35:07.665Z,338
2022-10-02T13:36:07.609Z,330
2022-10-02T13:37:07.437Z,335
2022-10-02T13:38:07.731Z,327
2022-10-02T13:39:07.986Z,302
2022-10-02T13:40:07.963Z,319
2022-10-02T13:41:08.104Z,327
2022-10-02T13:42:08.109Z,337
2022-10-02T13:43:08.012Z,333
2022-10-02T13:44:08.318Z,328
2022-10-02T13:45:07.938Z,334
2022-10-02T13:46:08.188Z,343
2022-10-02T13:47:07.343Z,341
2022-10-02T13:48:07.111Z,333
2022-10-02T13:49:07.796Z,326
2022-10-02T13:50:07.969Z,322
2022-10-02T13:52:07.955Z,326
2022-10-02T13:54:07.183Z,310
2022-10-02T13:56:10.949Z,330
2022-10-02T13:57:08.080Z,324
2022-10-02T13:58:07.863Z,328
2022-10-02T13:59:07.705Z,329
2022-10-02T14:00:08.582Z,331
2022-10-02T14:01:07.568Z,327
2022-10-02T14:03:07.649Z,325
2022-10-02T14:04:07.562Z,324
2022-10-02T14:05:07.770Z,319
2022-10-02T14:06:07.715Z,328
2022-10-02T14:07:07.585Z,327
2022-10-02T14:08:07.430Z,326
2022-10-02T14:09:07.754Z,328
2022-10-02T14:10:08.531Z,334
2022-10-02T14:11:07.964Z,328
2022-10-02T14:13:07.627Z,336
2022-10-02T14:14:07.650Z,308
2022-10-02T14:15:08.205Z,309
2022-10-02T14:16:07.196Z,322
2022-10-02T14:17:07.903Z,331
2022-10-02T14:18:07.980Z,347
2022-10-02T14:19:07.743Z,345
2022-10-02T14:20:08.593Z,335
2022-10-02T14:21:08.632Z,324
2022-10-02T14:22:07.875Z,326
2022-10-02T14:23:07.593Z,324
2022-10-02T14:24:07.402Z,328
2022-10-02T14:25:07.249Z,330
2022-10-02T14:26:07.707Z,329
2022-10-02T14:27:07.478Z,340
2022-10-02T14:28:07.279Z,344
2022-10-02T14:29:08.982Z,340